Time,TemperatureF,DewpointF,PressureIn,WindDirection,WindDirectionDegrees,WindSpeedMPH,WindSpeedGustMPH,Humidity,HourlyPrecipIn,Conditions,Clouds,dailyrainin,SoftwareType,DateUTC
2013-02-18 09:30:00,15.8,9.9,30.11,SW,225,0.4,0.4,77,0.00,,,0.00,WUHU216HW,2013-02-18 16:30:00,
2013-02-18 09:31:00,15.8,9.9,30.11,WSW,248,0.9,0.9,77,0.00,,,0.00,WUHU216HW,2013-02-18 16:31:00,
2013-02-18 09:36:00,16.0,10.1,30.11,WSW,248,0.4,1.1,77,0.00,,,0.00,WUHU216HW,2013-02-18 16:36:00,
2013-02-18 09:41:00,16.0,10.1,30.11,WSW,248,0.4,1.1,77,0.00,,,0.00,WUHU216HW,2013-02-18 16:41:00,
2013-02-18 10:00:00,19.4,12.4,30.11,WSW,248,2.2,2.2,74,0.00,,,0.00,WUHU216HW,2013-02-18 17:00:00,
2013-02-18 10:05:00,19.4,12.4,30.11,WSW,248,2.2,2.2,74,0.00,,,0.00,WUHU216HW,2013-02-18 17:05:00,
2013-02-18 10:30:00,22.9,15.5,30.11,SW,225,4.3,4.3,73,0.00,,,0.00,WUHU216HW,2013-02-18 17:30:00,
2013-02-18 10:35:00,22.9,15.5,30.11,SW,225,4.3,4.3,73,0.00,,,0.00,WUHU216HW,2013-02-18 17:35:00,
2013-02-18 11:00:00,26.3,18.5,30.11,SW,225,4.7,4.7,72,0.00,,,0.00,WUHU216HW,2013-02-18 18:00:00,
2013-02-18 11:05:00,26.3,18.5,30.11,SW,225,4.7,4.7,72,0.00,,,0.00,WUHU216HW,2013-02-18 18:05:00,
2013-02-18 11:30:00,29.5,20.3,30.11,South,180,1.1,1.1,68,0.00,,,0.00,WUHU216HW,2013-02-18 18:30:00,
2013-02-18 11:35:00,29.5,20.3,30.11,South,180,1.1,1.1,68,0.00,,,0.00,WUHU216HW,2013-02-18 18:35:00,
2013-02-18 12:00:00,32.4,20.9,30.12,WSW,248,1.8,1.8,62,0.00,,,0.00,WUHU216HW,2013-02-18 19:00:00,
2013-02-18 12:05:00,32.4,20.9,30.12,WSW,248,1.8,1.8,62,0.00,,,0.00,WUHU216HW,2013-02-18 19:05:00,
2013-02-18 12:30:00,34.2,20.9,30.11,SSE,158,2.0,2.0,58,0.00,,,0.00,WUHU216HW,2013-02-18 19:30:00,
2013-02-18 12:35:00,34.2,20.9,30.11,SSE,158,2.0,2.0,58,0.00,,,0.00,WUHU216HW,2013-02-18 19:35:00,
2013-02-18 13:00:00,36.2,22.0,30.09,SW,225,2.9,2.9,56,0.00,,,0.00,WUHU216HW,2013-02-18 20:00:00,
2013-02-18 13:05:00,36.2,22.0,30.09,SW,225,2.9,2.9,56,0.00,,,0.00,WUHU216HW,2013-02-18 20:05:00,
2013-02-18 13:30:00,36.7,21.2,30.09,SSE,158,3.4,3.4,53,0.00,,,0.00,WUHU216HW,2013-02-18 20:30:00,
2013-02-18 13:35:00,36.7,21.2,30.09,SSE,158,3.4,3.4,53,0.00,,,0.00,WUHU216HW,2013-02-18 20:35:00,
2013-02-18 14:00:00,37.8,20.9,30.09,East,90,0.7,0.7,50,0.00,,,0.00,WUHU216HW,2013-02-18 21:00:00,
2013-02-18 14:05:00,37.8,20.9,30.09,East,90,0.7,0.7,50,0.00,,,0.00,WUHU216HW,2013-02-18 21:05:00,
2013-02-18 14:30:00,38.2,20.2,30.09,ESE,113,2.5,2.5,48,0.00,,,0.00,WUHU216HW,2013-02-18 21:30:00,
2013-02-18 14:35:00,38.2,20.2,30.09,ESE,113,2.5,2.5,48,0.00,,,0.00,WUHU216HW,2013-02-18 21:35:00,
2013-02-18 15:00:00,38.3,19.3,30.08,SE,135,1.8,1.8,46,0.00,,,0.00,WUHU216HW,2013-02-18 22:00:00,
2013-02-18 15:05:00,38.3,19.3,30.08,SE,135,1.8,1.8,46,0.00,,,0.00,WUHU216HW,2013-02-18 22:05:00,
2013-02-18 15:30:00,39.1,20.4,30.08,SSE,158,0.4,0.4,47,0.00,,,0.00,WUHU216HW,2013-02-18 22:30:00,
2013-02-18 15:35:00,39.1,20.4,30.08,SSE,158,0.4,0.4,47,0.00,,,0.00,WUHU216HW,2013-02-18 22:35:00,
2013-02-18 16:00:00,38.7,19.5,30.08,South,180,1.1,1.1,46,0.00,,,0.00,WUHU216HW,2013-02-18 23:00:00,
2013-02-18 16:05:00,38.7,19.5,30.08,South,180,1.1,1.1,46,0.00,,,0.00,WUHU216HW,2013-02-18 23:05:00,
2013-02-18 16:30:00,37.6,18.6,30.07,WSW,248,2.5,2.5,46,0.00,,,0.00,WUHU216HW,2013-02-18 23:30:00,
2013-02-18 16:35:00,37.6,18.6,30.07,WSW,248,2.5,2.5,46,0.00,,,0.00,WUHU216HW,2013-02-18 23:35:00,
2013-02-18 17:00:00,36.4,18.0,30.07,SSW,203,0.4,0.4,47,0.00,,,0.00,WUHU216HW,2013-02-19 00:00:00,
2013-02-18 17:05:00,36.4,18.0,30.07,SSW,203,0.4,0.4,47,0.00,,,0.00,WUHU216HW,2013-02-19 00:05:00,
2013-02-18 17:30:00,34.4,17.1,30.07,WSW,248,0.0,0.0,49,0.00,,,0.00,WUHU216HW,2013-02-19 00:30:00,
2013-02-18 17:35:00,34.4,17.1,30.07,WSW,248,0.0,0.0,49,0.00,,,0.00,WUHU216HW,2013-02-19 00:35:00,
2013-02-18 18:00:00,31.3,15.3,30.06,WSW,248,0.0,0.0,51,0.00,,,0.00,WUHU216HW,2013-02-19 01:00:00,
2013-02-18 18:05:00,31.3,15.3,30.06,WSW,248,0.0,0.0,51,0.00,,,0.00,WUHU216HW,2013-02-19 01:05:00,
2013-02-18 18:30:00,27.7,12.8,30.06,NNE,23,0.4,0.4,53,0.00,,,0.00,WUHU216HW,2013-02-19 01:30:00,
2013-02-18 18:35:00,27.7,12.8,30.06,NNE,23,0.4,0.4,53,0.00,,,0.00,WUHU216HW,2013-02-19 01:35:00,
2013-02-18 19:00:00,25.6,12.0,30.07,NNE,23,0.0,0.0,56,0.00,,,0.00,WUHU216HW,2013-02-19 02:00:00,
2013-02-18 19:05:00,25.6,12.0,30.07,NNE,23,0.0,0.0,56,0.00,,,0.00,WUHU216HW,2013-02-19 02:05:00,
2013-02-18 19:30:00,24.7,12.0,30.07,NNE,23,0.0,0.0,58,0.00,,,0.00,WUHU216HW,2013-02-19 02:30:00,
2013-02-18 19:35:00,24.7,12.0,30.07,NNE,23,0.0,0.0,58,0.00,,,0.00,WUHU216HW,2013-02-19 02:35:00,
2013-02-18 20:00:00,23.2,11.0,30.07,North,0,0.0,0.0,59,0.00,,,0.00,WUHU216HW,2013-02-19 03:00:00,